Back to Top

Language: 

My Weather Underground Personal Weather Station Historical Data with Graphs...

Delerius Weather Station Historical Data
Daily Summary for September 6, 2017 Units:  Metric    English   Both
« Previous Day
Next Day »
Daily Weekly Monthly Yearly Custom
  High: Low: Average:
Temperature: 17.3 °C 11.1 °C 13.8 °C
Dew Point: 11.6 °C 9.9 °C 10.6 °C
Humidity: 94 % 65 % 81 %
Wind Speed: 25.7 km/h 0 km/h 11.7 km/h
Wind Gust: 43.5 km/h - -
Wind:- - West
Pressure: 1017.5 hPa 1013.8 hPa -
Precipitation: 0.51 mm    
Historical Graphs
 
 
Tabular Data for September 6, 2017
Time Temperature Dew Point Pressure Wind Wind Speed Wind Gust Humidity Rainfall Rate (Hourly) solar Conditions
00:03 11.1 °C 10.2 °C 1013.8 hPa WNW 1.6 km/h 8 km/h 94 % 0 mm 0 W/m2
00:08 11.2 °C 10.3 °C 1013.8 hPa WNW 1.6 km/h 8 km/h 94 % 0 mm 0 W/m2
00:13 11.2 °C 10.3 °C 1013.8 hPa WNW 3.2 km/h 9.7 km/h 94 % 0 mm 0 W/m2
00:18 11.3 °C 10.4 °C 1013.8 hPa West 4.8 km/h 12.9 km/h 94 % 0 mm 0 W/m2
00:23 11.3 °C 10.2 °C 1013.8 hPa West 3.2 km/h 12.9 km/h 93 % 0 mm 0 W/m2
00:28 11.3 °C 10.2 °C 1013.8 hPa West 1.6 km/h 8 km/h 93 % 0 mm 0 W/m2
00:33 11.3 °C 10.2 °C 1013.8 hPa West 3.2 km/h 9.7 km/h 93 % 0 mm 0 W/m2
00:38 11.4 °C 10.3 °C 1013.8 hPa West 3.2 km/h 11.3 km/h 93 % 0 mm 0 W/m2
00:43 11.4 °C 10.3 °C 1013.8 hPa West 1.6 km/h 11.3 km/h 93 % 0 mm 0 W/m2
00:49 11.3 °C 10.2 °C 1013.8 hPa West 3.2 km/h 11.3 km/h 93 % 0 mm 0 W/m2
00:54 11.4 °C 10.2 °C 1013.8 hPa West 4.8 km/h 11.3 km/h 92 % 0 mm 0 W/m2
00:59 11.4 °C 10.2 °C 1013.8 hPa West 4.8 km/h 12.9 km/h 92 % 0 mm 0 W/m2
01:04 11.4 °C 10.2 °C 1013.8 hPa West 6.4 km/h 12.9 km/h 92 % 0 mm 0 W/m2
01:09 11.6 °C 10.3 °C 1013.8 hPa West 8 km/h 16.1 km/h 92 % 0 mm 0 W/m2
01:14 11.6 °C 10.3 °C 1013.8 hPa West 9.7 km/h 16.1 km/h 92 % 0 mm 0 W/m2
01:19 11.7 °C 10.3 °C 1013.8 hPa West 8 km/h 14.5 km/h 91 % 0 mm 0 W/m2
01:24 11.8 °C 10.4 °C 1013.8 hPa West 9.7 km/h 19.3 km/h 91 % 0 mm 0 W/m2
01:29 11.9 °C 10.5 °C 1013.8 hPa West 11.3 km/h 19.3 km/h 91 % 0 mm 0 W/m2
01:34 12.1 °C 10.5 °C 1013.8 hPa West 12.9 km/h 24.1 km/h 90 % 0 mm 0 W/m2
01:39 12.2 °C 10.4 °C 1013.8 hPa West 11.3 km/h 24.1 km/h 89 % 0 mm 0 W/m2
01:44 12.2 °C 10.4 °C 1013.8 hPa West 8 km/h 20.9 km/h 89 % 0 mm 0 W/m2
01:49 12.2 °C 10.4 °C 1013.8 hPa West 8 km/h 12.9 km/h 89 % 0 mm 0 W/m2
01:54 12.1 °C 10.3 °C 1013.8 hPa West 9.7 km/h 16.1 km/h 89 % 0 mm 0 W/m2
01:59 12.1 °C 10.3 °C 1013.8 hPa West 9.7 km/h 16.1 km/h 89 % 0 mm 0 W/m2
02:04 12.1 °C 10.3 °C 1013.8 hPa West 11.3 km/h 22.5 km/h 89 % 0 mm 0 W/m2
02:09 12.2 °C 10.4 °C 1013.8 hPa West 12.9 km/h 24.1 km/h 89 % 0 mm 0 W/m2
02:14 12.2 °C 10.4 °C 1013.8 hPa West 12.9 km/h 24.1 km/h 89 % 0 mm 0 W/m2
02:19 12.3 °C 10.6 °C 1013.8 hPa WNW 12.9 km/h 19.3 km/h 89 % 0 mm 0 W/m2
02:24 12.3 °C 10.6 °C 1013.8 hPa WNW 9.7 km/h 19.3 km/h 89 % 0 mm 0 W/m2
02:29 12.3 °C 10.6 °C 1013.8 hPa WNW 9.7 km/h 16.1 km/h 89 % 0 mm 0 W/m2
02:34 12.3 °C 10.6 °C 1013.8 hPa WNW 9.7 km/h 16.1 km/h 89 % 0 mm 0 W/m2
02:39 12.3 °C 10.6 °C 1013.8 hPa WNW 8 km/h 14.5 km/h 89 % 0 mm 0 W/m2
02:44 12.4 °C 10.6 °C 1013.8 hPa West 9.7 km/h 16.1 km/h 89 % 0 mm 0 W/m2
02:49 12.4 °C 10.6 °C 1013.8 hPa West 9.7 km/h 16.1 km/h 89 % 0 mm 0 W/m2
02:54 12.3 °C 10.7 °C 1013.8 hPa West 8 km/h 14.5 km/h 90 % 0 mm 0 W/m2
02:59 12.3 °C 10.7 °C 1013.8 hPa West 8 km/h 14.5 km/h 90 % 0 mm 0 W/m2
03:04 12.3 °C 10.7 °C 1013.8 hPa West 4.8 km/h 12.9 km/h 90 % 0 mm 0 W/m2
03:09 12.2 °C 10.6 °C 1013.8 hPa West 3.2 km/h 9.7 km/h 90 % 0 mm 0 W/m2
03:14 12.2 °C 10.6 °C 1013.8 hPa WSW 1.6 km/h 11.3 km/h 90 % 0 mm 0 W/m2
03:19 12.1 °C 10.5 °C 1013.8 hPa WSW 1.6 km/h 11.3 km/h 90 % 0 mm 0 W/m2
03:24 11.9 °C 10.3 °C 1013.8 hPa West 4.8 km/h 8 km/h 90 % 0 mm 0 W/m2
03:29 11.8 °C 10.4 °C 1013.8 hPa WNW 6.4 km/h 9.7 km/h 91 % 0 mm 0 W/m2
03:34 11.8 °C 10.4 °C 1013.8 hPa WNW 6.4 km/h 9.7 km/h 91 % 0 mm 0 W/m2
03:39 11.7 °C 10.3 °C 1013.8 hPa West 6.4 km/h 11.3 km/h 91 % 0 mm 0 W/m2
03:44 11.7 °C 10.3 °C 1013.8 hPa WNW 4.8 km/h 11.3 km/h 91 % 0 mm 0 W/m2
03:49 11.7 °C 10.4 °C 1013.8 hPa West 4.8 km/h 9.7 km/h 92 % 0 mm 0 W/m2
03:54 11.6 °C 10.3 °C 1013.8 hPa West 6.4 km/h 9.7 km/h 92 % 0 mm 0 W/m2
03:59 11.6 °C 10.3 °C 1013.8 hPa West 6.4 km/h 12.9 km/h 92 % 0 mm 0 W/m2
04:04 11.7 °C 10.4 °C 1013.8 hPa West 6.4 km/h 12.9 km/h 92 % 0 mm 0 W/m2
04:09 11.7 °C 10.3 °C 1013.8 hPa West 8 km/h 14.5 km/h 91 % 0 mm 0 W/m2
04:13 11.8 °C 10.4 °C 1013.8 hPa West 9.7 km/h 14.5 km/h 91 % 0 mm 0 W/m2
04:18 11.8 °C 10.4 °C 1013.8 hPa West 9.7 km/h 14.5 km/h 91 % 0 mm 0 W/m2
04:23 11.8 °C 10.4 °C 1013.8 hPa West 9.7 km/h 17.7 km/h 91 % 0 mm 0 W/m2
04:28 11.8 °C 10.4 °C 1013.8 hPa West 8 km/h 17.7 km/h 91 % 0 mm 0 W/m2
04:33 11.8 °C 10.4 °C 1013.8 hPa WNW 6.4 km/h 12.9 km/h 91 % 0 mm 0 W/m2
04:38 11.8 °C 10.4 °C 1014.1 hPa WNW 6.4 km/h 12.9 km/h 91 % 0 mm 0 W/m2
04:43 11.8 °C 10.4 °C 1014.1 hPa West 6.4 km/h 12.9 km/h 91 % 0 mm 0 W/m2
04:48 11.9 °C 10.5 °C 1014.1 hPa West 6.4 km/h 12.9 km/h 91 % 0 mm 0 W/m2
04:53 11.9 °C 10.5 °C 1014.1 hPa West 8 km/h 14.5 km/h 91 % 0 mm 0 W/m2
04:58 12.1 °C 10.5 °C 1014.1 hPa West 8 km/h 14.5 km/h 90 % 0 mm 0 W/m2
05:03 12.2 °C 10.6 °C 1014.1 hPa West 8 km/h 14.5 km/h 90 % 0 mm 0 W/m2
05:08 12.2 °C 10.6 °C 1014.1 hPa West 8 km/h 14.5 km/h 90 % 0 mm 0 W/m2
05:13 12.3 °C 10.7 °C 1014.1 hPa West 8 km/h 14.5 km/h 90 % 0 mm 0 W/m2
05:18 12.3 °C 10.7 °C 1014.1 hPa West 8 km/h 12.9 km/h 90 % 0 mm 0 W/m2
05:23 12.2 °C 10.4 °C 1014.1 hPa West 4.8 km/h 11.3 km/h 89 % 0 mm 0 W/m2
05:28 12.2 °C 10.4 °C 1014.1 hPa West 4.8 km/h 11.3 km/h 89 % 0 mm 0 W/m2
05:33 12.1 °C 10.3 °C 1014.1 hPa West 4.8 km/h 11.3 km/h 89 % 0 mm 0 W/m2
05:38 12 °C 10.2 °C 1014.1 hPa West 1.6 km/h 9.7 km/h 89 % 0 mm 0 W/m2
05:48 11.8 °C 10.1 °C 1014.4 hPa Calm   3.2 km/h 89 % 0 mm 0 W/m2
05:53 11.7 °C 9.9 °C 1014.1 hPa Calm     89 % 0 mm 0 W/m2
05:58 11.6 °C 10 °C 1014.4 hPa West 1.6 km/h 6.4 km/h 90 % 0 mm 0 W/m2
06:04 11.6 °C 10 °C 1014.4 hPa West 1.6 km/h 6.4 km/h 90 % 0 mm 0 W/m2
06:09 11.6 °C 10 °C 1014.4 hPa West 1.6 km/h 8 km/h 90 % 0 mm 0 W/m2
06:14 11.6 °C 10 °C 1014.4 hPa West 3.2 km/h 9.7 km/h 90 % 0 mm 0 W/m2
06:19 11.6 °C 10.2 °C 1014.4 hPa West 4.8 km/h 9.7 km/h 91 % 0 mm 0 W/m2
06:24 11.7 °C 10.3 °C 1014.8 hPa WSW 3.2 km/h 8 km/h 91 % 0 mm 0 W/m2
06:29 11.7 °C 10.3 °C 1014.4 hPa WSW 1.6 km/h 8 km/h 91 % 0 mm 0 W/m2
06:34 11.8 °C 10.4 °C 1014.8 hPa West 1.6 km/h 8 km/h 91 % 0 mm 5 W/m2
06:39 11.8 °C 10.2 °C 1014.8 hPa West 1.6 km/h 6.4 km/h 90 % 0 mm 5 W/m2
06:44 11.8 °C 10.2 °C 1014.8 hPa Calm   6.4 km/h 90 % 0 mm 7 W/m2
06:49 11.8 °C 10.2 °C 1015.1 hPa Calm   8 km/h 90 % 0 mm 7 W/m2
06:53 11.9 °C 10.3 °C 1015.1 hPa WNW 1.6 km/h 8 km/h 90 % 0 mm 5 W/m2
06:58 11.9 °C 10.3 °C 1014.8 hPa WNW 3.2 km/h 8 km/h 90 % 0 mm 9 W/m2
07:03 11.9 °C 10.3 °C 1015.1 hPa WNW 3.2 km/h 9.7 km/h 90 % 0 mm 11 W/m2
07:08 12 °C 10.2 °C 1015.1 hPa West 4.8 km/h 9.7 km/h 89 % 0 mm 12 W/m2
07:13 12.1 °C 10.3 °C 1015.1 hPa West 4.8 km/h 12.9 km/h 89 % 0 mm 25 W/m2
07:18 12.2 °C 10.4 °C 1015.1 hPa West 4.8 km/h 12.9 km/h 89 % 0 mm 23 W/m2
07:23 12.2 °C 10.4 °C 1015.1 hPa West 8 km/h 20.9 km/h 89 % 0 mm 26 W/m2
07:28 12.3 °C 10.4 °C 1015.1 hPa West 12.9 km/h 24.1 km/h 88 % 0 mm 32 W/m2
07:33 12.4 °C 10.3 °C 1015.1 hPa WNW 16.1 km/h 30.6 km/h 87 % 0 mm 40 W/m2
07:43 12.7 °C 10.4 °C 1015.1 hPa WNW 14.5 km/h 24.1 km/h 86 % 0 mm 44 W/m2
07:48 12.7 °C 10.4 °C 1015.5 hPa WNW 12.9 km/h 24.1 km/h 86 % 0 mm 46 W/m2
07:53 12.8 °C 10.3 °C 1015.5 hPa WNW 12.9 km/h 24.1 km/h 85 % 0 mm 51 W/m2
07:58 12.8 °C 10.3 °C 1015.5 hPa WNW 14.5 km/h 24.1 km/h 85 % 0 mm 49 W/m2
08:03 12.8 °C 10.3 °C 1015.5 hPa WNW 14.5 km/h 25.7 km/h 85 % 0 mm 53 W/m2
08:08 12.9 °C 10.4 °C 1015.5 hPa WNW 14.5 km/h 25.7 km/h 85 % 0 mm 49 W/m2
08:13 12.9 °C 10.4 °C 1015.5 hPa WNW 12.9 km/h 25.7 km/h 85 % 0 mm 51 W/m2
08:18 12.9 °C 10.4 °C 1015.5 hPa WNW 12.9 km/h 24.1 km/h 85 % 0 mm 67 W/m2
08:23 13 °C 10.6 °C 1015.5 hPa West 14.5 km/h 30.6 km/h 85 % 0 mm 74 W/m2
08:28 13.1 °C 10.6 °C 1015.5 hPa WNW 14.5 km/h 30.6 km/h 85 % 0 mm 62 W/m2
08:30 13.1 °C 10.6 °C 1015.8 hPa WNW 12.9 km/h 22.5 km/h 85 % 0 mm 56 W/m2
08:35 13.1 °C 10.6 °C 1015.8 hPa WNW 12.9 km/h 22.5 km/h 85 % 0 mm 74 W/m2
08:40 13.1 °C 10.6 °C 1015.8 hPa WNW 11.3 km/h 22.5 km/h 85 % 0 mm 98 W/m2
08:45 13.1 °C 10.6 °C 1015.8 hPa WNW 9.7 km/h 20.9 km/h 85 % 0 mm 90 W/m2
08:50 13.2 °C 10.7 °C 1015.8 hPa WNW 11.3 km/h 20.9 km/h 85 % 0 mm 123 W/m2
08:55 13.2 °C 10.7 °C 1015.8 hPa West 11.3 km/h 22.5 km/h 85 % 0 mm 102 W/m2
09:00 13.3 °C 10.7 °C 1015.8 hPa West 11.3 km/h 22.5 km/h 84 % 0 mm 116 W/m2
09:05 13.4 °C 10.8 °C 1015.8 hPa WNW 11.3 km/h 19.3 km/h 84 % 0 mm 111 W/m2
09:07 13.4 °C 10.8 °C 1015.8 hPa West 11.3 km/h 20.9 km/h 84 % 0 mm 120 W/m2
09:12 13.5 °C 10.7 °C 1015.8 hPa West 12.9 km/h 25.7 km/h 83 % 0 mm 155 W/m2
09:17 13.7 °C 10.9 °C 1015.8 hPa West 14.5 km/h 25.7 km/h 83 % 0 mm 153 W/m2
09:22 13.8 °C 10.8 °C 1015.8 hPa West 12.9 km/h 24.1 km/h 82 % 0 mm 179 W/m2
09:27 13.9 °C 10.9 °C 1015.8 hPa West 12.9 km/h 25.7 km/h 82 % 0 mm 158 W/m2
09:32 13.9 °C 10.7 °C 1016.1 hPa West 14.5 km/h 25.7 km/h 81 % 0 mm 185 W/m2
09:37 14.1 °C 10.9 °C 1016.1 hPa West 14.5 km/h 25.7 km/h 81 % 0 mm 192 W/m2
09:42 14.1 °C 10.7 °C 1015.8 hPa West 14.5 km/h 25.7 km/h 80 % 0 mm 160 W/m2
09:47 14.2 °C 10.8 °C 1015.8 hPa WNW 16.1 km/h 25.7 km/h 80 % 0 mm 206 W/m2
09:48 14.2 °C 10.8 °C 1016.1 hPa WNW 16.1 km/h 25.7 km/h 80 % 0 mm 209 W/m2
09:53 14.3 °C 10.9 °C 1016.1 hPa WNW 16.1 km/h 25.7 km/h 80 % 0 mm 186 W/m2
09:58 14.3 °C 10.7 °C 1016.1 hPa WNW 16.1 km/h 32.2 km/h 79 % 0 mm 139 W/m2
10:03 14.2 °C 11 °C 1016.1 hPa WNW 17.7 km/h 32.2 km/h 81 % 0 mm 160 W/m2
10:08 14.1 °C 11.1 °C 1016.1 hPa WNW 14.5 km/h 25.7 km/h 82 % 0 mm 130 W/m2
10:13 14.1 °C 11.3 °C 1016.1 hPa NW 9.7 km/h 19.3 km/h 83 % 0 mm 195 W/m2
10:18 14 °C 11.2 °C 1016.1 hPa WNW 9.7 km/h 29 km/h 83 % 0 mm 234 W/m2
10:23 14 °C 10.6 °C 1016.1 hPa WNW 14.5 km/h 29 km/h 80 % 0 mm 204 W/m2
10:28 14.1 °C 10.5 °C 1016.1 hPa WNW 14.5 km/h 24.1 km/h 79 % 0 mm 197 W/m2
10:33 14.2 °C 10.4 °C 1016.1 hPa West 16.1 km/h 33.8 km/h 78 % 0 mm 230 W/m2
10:38 14.2 °C 10.2 °C 1016.1 hPa West 20.9 km/h 33.8 km/h 77 % 0 mm 262 W/m2
10:43 14.2 °C 10 °C 1016.1 hPa West 19.3 km/h 33.8 km/h 76 % 0 mm 290 W/m2
10:48 14.3 °C 10.1 °C 1016.5 hPa West 17.7 km/h 35.4 km/h 76 % 0 mm 232 W/m2
10:53 14.4 °C 10.2 °C 1016.5 hPa West 19.3 km/h 35.4 km/h 76 % 0 mm 244 W/m2
10:58 14.4 °C 10.2 °C 1016.5 hPa West 19.3 km/h 32.2 km/h 76 % 0 mm 248 W/m2
11:03 14.6 °C 10.6 °C 1016.5 hPa WNW 19.3 km/h 30.6 km/h 77 % 0 mm 288 W/m2
11:08 14.7 °C 10.5 °C 1016.5 hPa West 19.3 km/h 30.6 km/h 76 % 0 mm 323 W/m2
11:13 14.8 °C 10.6 °C 1016.5 hPa West 20.9 km/h 35.4 km/h 76 % 0 mm 334 W/m2
11:18 14.9 °C 10.9 °C 1016.5 hPa West 22.5 km/h 35.4 km/h 77 % 0 mm 366 W/m2
11:23 15.1 °C 11.1 °C 1016.5 hPa WNW 22.5 km/h 37 km/h 77 % 0 mm 420 W/m2
11:28 15.1 °C 10.9 °C 1016.5 hPa West 22.5 km/h 37 km/h 76 % 0 mm 260 W/m2
11:33 15 °C 10.8 °C 1016.1 hPa WNW 20.9 km/h 35.4 km/h 76 % 0 mm 214 W/m2
11:38 15.2 °C 11.2 °C 1016.1 hPa WNW 19.3 km/h 33.8 km/h 77 % 0 mm 360 W/m2
11:44 15.4 °C 11.2 °C 1016.5 hPa West 19.3 km/h 33.8 km/h 76 % 0 mm 290 W/m2
11:49 15.4 °C 11.2 °C 1016.5 hPa WNW 19.3 km/h 35.4 km/h 76 % 0 mm 316 W/m2
11:59 15.4 °C 11.2 °C 1016.5 hPa WNW 20.9 km/h 38.6 km/h 76 % 0 mm 332 W/m2
12:04 15.4 °C 11.2 °C 1016.5 hPa West 20.9 km/h 38.6 km/h 76 % 0 mm 292 W/m2
12:09 15.4 °C 11.2 °C 1016.8 hPa West 20.9 km/h 37 km/h 76 % 0 mm 271 W/m2
12:14 15.2 °C 11 °C 1016.8 hPa WNW 22.5 km/h 37 km/h 76 % 0 mm 262 W/m2
12:19 15.1 °C 10.9 °C 1016.8 hPa WNW 19.3 km/h 37 km/h 76 % 0 mm 188 W/m2
12:24 15.1 °C 10.9 °C 1016.8 hPa WNW 16.1 km/h 25.7 km/h 76 % 0 mm 206 W/m2
12:29 15.1 °C 11.1 °C 1016.8 hPa West 14.5 km/h 25.7 km/h 77 % 0 mm 267 W/m2
12:34 15.1 °C 11.1 °C 1016.5 hPa West 16.1 km/h 25.7 km/h 77 % 0 mm 288 W/m2
12:39 15.2 °C 11.2 °C 1016.5 hPa West 16.1 km/h 25.7 km/h 77 % 0 mm 271 W/m2
12:44 15.3 °C 11.1 °C 1016.5 hPa WNW 16.1 km/h 25.7 km/h 76 % 0 mm 236 W/m2
12:49 15.4 °C 11.2 °C 1016.5 hPa WNW 16.1 km/h 25.7 km/h 76 % 0 mm 294 W/m2
12:54 15.6 °C 11.2 °C 1016.5 hPa West 14.5 km/h 25.7 km/h 75 % 0 mm 352 W/m2
12:59 15.8 °C 11.6 °C 1016.5 hPa WNW 12.9 km/h 25.7 km/h 76 % 0 mm 471 W/m2
13:04 16.1 °C 11.4 °C 1016.5 hPa WNW 12.9 km/h 24.1 km/h 74 % 0 mm 167 W/m2
13:09 16.1 °C 11.3 °C 1016.8 hPa WNW 14.5 km/h 30.6 km/h 73 % 0 mm 176 W/m2
13:12 16 °C 10.7 °C 1016.8 hPa WNW 16.1 km/h 30.6 km/h 71 % 0 mm 206 W/m2
13:17 15.9 °C 10.8 °C 1016.8 hPa West 17.7 km/h 30.6 km/h 72 % 0 mm 214 W/m2
13:22 15.8 °C 10.6 °C 1016.8 hPa WNW 17.7 km/h 32.2 km/h 71 % 0 mm 251 W/m2
13:27 15.8 °C 10.6 °C 1016.8 hPa WNW 17.7 km/h 35.4 km/h 71 % 0 mm 250 W/m2
13:32 15.8 °C 10.3 °C 1016.8 hPa WNW 17.7 km/h 35.4 km/h 70 % 0 mm 294 W/m2
13:37 15.9 °C 10.8 °C 1016.8 hPa WNW 16.1 km/h 32.2 km/h 72 % 0 mm 220 W/m2
13:42 16 °C 10.7 °C 1016.8 hPa WNW 16.1 km/h 32.2 km/h 71 % 0 mm 186 W/m2
13:47 15.9 °C 10.4 °C 1016.8 hPa WNW 16.1 km/h 30.6 km/h 70 % 0 mm 181 W/m2
13:52 15.9 °C 10.7 °C 1016.8 hPa West 12.9 km/h 20.9 km/h 71 % 0 mm 197 W/m2
13:57 15.9 °C 10.4 °C 1016.8 hPa West 14.5 km/h 29 km/h 70 % 0 mm 216 W/m2
14:02 15.8 °C 10.3 °C 1016.8 hPa West 14.5 km/h 29 km/h 70 % 0 mm 308 W/m2
14:07 15.9 °C 10.2 °C 1016.8 hPa West 17.7 km/h 32.2 km/h 69 % 0 mm 334 W/m2
14:12 16.1 °C 10.4 °C 1016.8 hPa West 19.3 km/h 32.2 km/h 69 % 0 mm 264 W/m2
14:17 16.2 °C 10.3 °C 1016.8 hPa WNW 17.7 km/h 30.6 km/h 68 % 0 mm 265 W/m2
14:23 16.3 °C 10.4 °C 1016.8 hPa West 16.1 km/h 30.6 km/h 68 % 0 mm 292 W/m2
14:28 16.3 °C 10.4 °C 1016.8 hPa West 16.1 km/h 29 km/h 68 % 0 mm 220 W/m2
14:33 16.3 °C 10.2 °C 1016.8 hPa West 17.7 km/h 30.6 km/h 67 % 0 mm 294 W/m2
14:38 16.2 °C 10.1 °C 1017.2 hPa West 19.3 km/h 32.2 km/h 67 % 0 mm 320 W/m2
14:43 16.2 °C 10.1 °C 1017.2 hPa West 19.3 km/h 32.2 km/h 67 % 0 mm 431 W/m2
14:48 16.3 °C 10.2 °C 1016.8 hPa WNW 17.7 km/h 30.6 km/h 67 % 0 mm 366 W/m2
14:53 16.4 °C 10.3 °C 1017.2 hPa West 19.3 km/h 33.8 km/h 67 % 0 mm 529 W/m2
14:58 16.4 °C 10.5 °C 1017.2 hPa West 20.9 km/h 38.6 km/h 68 % 0 mm 264 W/m2
15:03 16.2 °C 10.5 °C 1017.2 hPa West 19.3 km/h 38.6 km/h 69 % 0 mm 185 W/m2
15:08 16.1 °C 10.4 °C 1017.2 hPa West 16.1 km/h 32.2 km/h 69 % 0 mm 128 W/m2
15:13 15.9 °C 10.2 °C 1017.2 hPa West 16.1 km/h 25.7 km/h 69 % 0 mm 151 W/m2
15:18 15.8 °C 10.1 °C 1017.2 hPa West 16.1 km/h 30.6 km/h 69 % 0 mm 265 W/m2
15:23 15.9 °C 10.2 °C 1017.2 hPa West 17.7 km/h 30.6 km/h 69 % 0 mm 318 W/m2
15:28 16 °C 10.3 °C 1016.8 hPa West 16.1 km/h 29 km/h 69 % 0 mm 302 W/m2
15:33 16.2 °C 10.7 °C 1016.8 hPa West 12.9 km/h 25.7 km/h 70 % 0 mm 297 W/m2
15:38 16.3 °C 10.4 °C 1016.8 hPa West 16.1 km/h 37 km/h 68 % 0 mm 250 W/m2
15:43 16.3 °C 10.2 °C 1016.8 hPa West 22.5 km/h 37 km/h 67 % 0 mm 290 W/m2
15:48 16.3 °C 10.4 °C 1016.8 hPa WNW 20.9 km/h 37 km/h 68 % 0 mm 468 W/m2
15:53 16.7 °C 11 °C 1016.8 hPa WNW 16.1 km/h 25.7 km/h 69 % 0 mm 517 W/m2
15:58 17 °C 10.6 °C 1016.8 hPa West 17.7 km/h 30.6 km/h 66 % 0 mm 550 W/m2
16:03 17 °C 10.8 °C 1016.8 hPa West 20.9 km/h 35.4 km/h 67 % 0 mm 563 W/m2
16:08 17.1 °C 10.9 °C 1016.8 hPa West 20.9 km/h 35.4 km/h 67 % 0 mm 552 W/m2
16:13 17.3 °C 11.1 °C 1016.8 hPa West 19.3 km/h 38.6 km/h 67 % 0 mm 552 W/m2
16:18 17.2 °C 10.8 °C 1016.8 hPa West 20.9 km/h 38.6 km/h 66 % 0 mm 283 W/m2
16:23 17.1 °C 10.7 °C 1016.8 hPa West 20.9 km/h 33.8 km/h 66 % 0 mm 237 W/m2
16:28 17 °C 10.4 °C 1016.8 hPa WNW 19.3 km/h 30.6 km/h 65 % 0 mm 214 W/m2
16:33 16.9 °C 10.3 °C 1016.8 hPa West 20.9 km/h 41.8 km/h 65 % 0 mm 568 W/m2
16:38 17.1 °C 10.4 °C 1016.8 hPa West 19.3 km/h 41.8 km/h 65 % 0 mm 265 W/m2
16:39 17.1 °C 10.4 °C 1016.8 hPa West 20.9 km/h 41.8 km/h 65 % 0 mm 253 W/m2
16:44 16.9 °C 10.5 °C 1016.8 hPa West 19.3 km/h 33.8 km/h 66 % 0 mm 206 W/m2
16:49 16.8 °C 10.2 °C 1016.8 hPa West 19.3 km/h 35.4 km/h 65 % 0 mm 204 W/m2
16:54 16.6 °C 10.2 °C 1016.8 hPa West 20.9 km/h 40.2 km/h 66 % 0 mm 248 W/m2
16:59 16.5 °C 10.1 °C 1016.8 hPa West 20.9 km/h 40.2 km/h 66 % 0 mm 167 W/m2
17:04 16.3 °C 10.2 °C 1016.8 hPa West 24.1 km/h 41.8 km/h 67 % 0 mm 146 W/m2
17:09 16.2 °C 10.3 °C 1016.8 hPa WNW 22.5 km/h 41.8 km/h 68 % 0 mm 127 W/m2
17:14 16.1 °C 10.2 °C 1016.8 hPa West 19.3 km/h 35.4 km/h 68 % 0 mm 141 W/m2
17:19 16 °C 10.3 °C 1016.8 hPa West 17.7 km/h 30.6 km/h 69 % 0 mm 88 W/m2
17:24 15.9 °C 10.4 °C 1016.8 hPa West 19.3 km/h 30.6 km/h 70 % 0 mm 97 W/m2
17:29 15.8 °C 10.3 °C 1016.8 hPa West 19.3 km/h 32.2 km/h 70 % 0 mm 37 W/m2
17:34 15.7 °C 10.4 °C 1017.2 hPa WNW 20.9 km/h 37 km/h 71 % 0 mm 42 W/m2
17:39 15.6 °C 10.6 °C 1016.8 hPa WNW 20.9 km/h 37 km/h 72 % 0 mm 67 W/m2
17:44 15.5 °C 10.4 °C 1016.8 hPa WNW 19.3 km/h 33.8 km/h 72 % 0 mm 79 W/m2
17:49 15.4 °C 10.4 °C 1016.5 hPa WNW 20.9 km/h 43.5 km/h 72 % 0 mm 88 W/m2
17:54 15.3 °C 10.3 °C 1016.5 hPa West 22.5 km/h 43.5 km/h 72 % 0 mm 93 W/m2
17:59 15.3 °C 10.5 °C 1016.5 hPa WNW 22.5 km/h 38.6 km/h 73 % 0 mm 105 W/m2
18:04 15.2 °C 10.6 °C 1016.5 hPa WNW 22.5 km/h 38.6 km/h 74 % 0 mm 113 W/m2
18:09 15.2 °C 10.6 °C 1016.5 hPa WNW 20.9 km/h 35.4 km/h 74 % 0 mm 105 W/m2
18:15 15.1 °C 10.5 °C 1016.5 hPa WNW 20.9 km/h 35.4 km/h 74 % 0 mm 93 W/m2
18:19 15.1 °C 10.5 °C 1016.5 hPa WNW 24.1 km/h 43.5 km/h 74 % 0 mm 90 W/m2
18:24 15 °C 10.4 °C 1016.5 hPa West 25.7 km/h 43.5 km/h 74 % 0 mm 88 W/m2
18:29 14.9 °C 10.3 °C 1016.5 hPa West 24.1 km/h 40.2 km/h 74 % 0 mm 74 W/m2
18:35 14.9 °C 10.3 °C 1016.5 hPa West 22.5 km/h 40.2 km/h 74 % 0 mm 70 W/m2
18:40 14.9 °C 10.3 °C 1016.8 hPa West 22.5 km/h 40.2 km/h 74 % 0 mm 83 W/m2
18:45 14.9 °C 10.3 °C 1016.8 hPa West 22.5 km/h 33.8 km/h 74 % 0 mm 63 W/m2
18:50 14.8 °C 10.2 °C 1016.8 hPa West 19.3 km/h 33.8 km/h 74 % 0 mm 51 W/m2
18:55 14.8 °C 10.4 °C 1016.8 hPa West 14.5 km/h 29 km/h 75 % 0 mm 44 W/m2
19:00 14.8 °C 10.4 °C 1016.8 hPa West 12.9 km/h 24.1 km/h 75 % 0 mm 37 W/m2
19:05 14.7 °C 10.3 °C 1016.8 hPa West 12.9 km/h 24.1 km/h 75 % 0 mm 32 W/m2
19:10 14.7 °C 10.5 °C 1016.8 hPa West 11.3 km/h 30.6 km/h 76 % 0 mm 25 W/m2
19:15 14.6 °C 10.4 °C 1016.8 hPa West 12.9 km/h 30.6 km/h 76 % 0 mm 18 W/m2
19:20 14.6 °C 10.4 °C 1017.2 hPa West 12.9 km/h 24.1 km/h 76 % 0 mm 21 W/m2
19:25 14.6 °C 10.6 °C 1016.8 hPa West 12.9 km/h 24.1 km/h 77 % 0 mm 23 W/m2
19:30 14.5 °C 10.5 °C 1017.2 hPa West 12.9 km/h 20.9 km/h 77 % 0 mm 18 W/m2
19:35 14.4 °C 10.4 °C 1017.2 hPa West 12.9 km/h 20.9 km/h 77 % 0 mm 12 W/m2
19:40 14.4 °C 10.4 °C 1017.2 hPa West 12.9 km/h 24.1 km/h 77 % 0 mm 9 W/m2
19:45 14.3 °C 10.5 °C 1017.5 hPa WNW 14.5 km/h 24.1 km/h 78 % 0 mm 5 W/m2
19:50 14.2 °C 10.4 °C 1017.5 hPa WNW 14.5 km/h 24.1 km/h 78 % 0 mm 0 W/m2
19:55 14.2 °C 10.4 °C 1017.5 hPa West 12.9 km/h 20.9 km/h 78 % 0 mm 0 W/m2
20:00 14.1 °C 10.5 °C 1017.5 hPa WNW 12.9 km/h 20.9 km/h 79 % 0 mm 0 W/m2
20:05 14 °C 10.4 °C 1017.5 hPa West 12.9 km/h 20.9 km/h 79 % 0 mm 0 W/m2
20:10 14 °C 10.6 °C 1017.5 hPa West 9.7 km/h 20.9 km/h 80 % 0 mm 0 W/m2
20:15 13.9 °C 10.5 °C 1017.5 hPa West 6.4 km/h 16.1 km/h 80 % 0 mm 0 W/m2
20:20 13.9 °C 10.5 °C 1017.5 hPa West 8 km/h 14.5 km/h 80 % 0 mm 0 W/m2
20:25 13.8 °C 10.4 °C 1017.5 hPa WNW 8 km/h 14.5 km/h 80 % 0 mm 0 W/m2
20:30 13.9 °C 10.5 °C 1017.5 hPa WNW 8 km/h 14.5 km/h 80 % 0 mm 0 W/m2
20:35 13.9 °C 10.7 °C 1017.5 hPa West 8 km/h 17.7 km/h 81 % 0 mm 0 W/m2
20:40 13.9 °C 10.7 °C 1017.5 hPa West 8 km/h 17.7 km/h 81 % 0 mm 0 W/m2
20:41 13.9 °C 10.5 °C 1017.5 hPa West 8 km/h 17.7 km/h 80 % 0 mm 0 W/m2
20:46 13.9 °C 10.7 °C 1017.5 hPa West 6.4 km/h 17.7 km/h 81 % 0 mm 0 W/m2
20:51 13.9 °C 10.7 °C 1017.5 hPa West 8 km/h 14.5 km/h 81 % 0 mm 0 W/m2
20:56 13.8 °C 10.6 °C 1017.5 hPa West 8 km/h 14.5 km/h 81 % 0 mm 0 W/m2
21:01 13.9 °C 10.7 °C 1017.5 hPa West 8 km/h 14.5 km/h 81 % 0 mm 0 W/m2
21:06 13.8 °C 10.6 °C 1017.5 hPa West 6.4 km/h 14.5 km/h 81 % 0 mm 0 W/m2
21:11 13.8 °C 10.6 °C 1017.5 hPa West 6.4 km/h 12.9 km/h 81 % 0 mm 0 W/m2
21:16 13.8 °C 10.6 °C 1017.5 hPa West 4.8 km/h 12.9 km/h 81 % 0 mm 0 W/m2
21:21 13.7 °C 10.5 °C 1017.5 hPa WSW 3.2 km/h 9.7 km/h 81 % 0 mm 0 W/m2
21:26 13.7 °C 10.5 °C 1017.5 hPa WSW 4.8 km/h 11.3 km/h 81 % 0 mm 0 W/m2
21:31 13.6 °C 10.6 °C 1017.5 hPa WSW 4.8 km/h 11.3 km/h 82 % 0 mm 0 W/m2
21:36 13.6 °C 10.6 °C 1017.5 hPa WSW 4.8 km/h 11.3 km/h 82 % 0 mm 0 W/m2
21:41 13.6 °C 10.6 °C 1017.5 hPa WSW 4.8 km/h 8 km/h 82 % 0 mm 0 W/m2
21:47 13.6 °C 10.6 °C 1017.5 hPa WSW 4.8 km/h 12.9 km/h 82 % 0 mm 0 W/m2
21:52 13.6 °C 10.6 °C 1017.2 hPa WSW 6.4 km/h 12.9 km/h 82 % 0 mm 0 W/m2
21:57 13.5 °C 10.5 °C 1017.2 hPa WSW 4.8 km/h 9.7 km/h 82 % 0 mm 0 W/m2
22:02 13.4 °C 10.4 °C 1017.2 hPa WSW 3.2 km/h 9.7 km/h 82 % 0 mm 0 W/m2
22:07 13.4 °C 10.6 °C 1017.2 hPa WSW 1.6 km/h 6.4 km/h 83 % 0 mm 0 W/m2
22:12 13.4 °C 10.6 °C 1017.2 hPa WSW 1.6 km/h 9.7 km/h 83 % 0 mm 0 W/m2
22:17 13.3 °C 10.5 °C 1017.2 hPa WSW 3.2 km/h 9.7 km/h 83 % 0 mm 0 W/m2
22:22 13.3 °C 10.5 °C 1017.2 hPa WSW 4.8 km/h 9.7 km/h 83 % 0 mm 0 W/m2
22:26 13.2 °C 10.6 °C 1017.2 hPa WSW 6.4 km/h 11.3 km/h 84 % 0 mm 0 W/m2
22:31 13.2 °C 10.6 °C 1016.8 hPa WSW 8 km/h 12.9 km/h 84 % 0 mm 0 W/m2
22:36 13.2 °C 10.6 °C 1016.8 hPa WSW 8 km/h 16.1 km/h 84 % 0 mm 0 W/m2
22:41 13.2 °C 10.6 °C 1017.2 hPa WSW 8 km/h 16.1 km/h 84 % 0 mm 0 W/m2
22:46 13.2 °C 10.6 °C 1017.2 hPa West 6.4 km/h 12.9 km/h 84 % 0 mm 0 W/m2
22:51 13.2 °C 10.6 °C 1017.2 hPa West 8 km/h 11.3 km/h 84 % 0 mm 0 W/m2
22:52 13.2 °C 10.6 °C 1017.2 hPa West 8 km/h 11.3 km/h 84 % 0 mm 0 W/m2
22:57 13.3 °C 10.7 °C 1017.2 hPa West 6.4 km/h 11.3 km/h 84 % 0 mm 0 W/m2
23:02 13.3 °C 10.7 °C 1017.2 hPa West 6.4 km/h 11.3 km/h 84 % 0 mm 0 W/m2
23:07 13.3 °C 10.7 °C 1017.2 hPa West 6.4 km/h 11.3 km/h 84 % 0 mm 0 W/m2
23:12 13.3 °C 11 °C 1017.2 hPa West 8 km/h 12.9 km/h 86 % 0.25 mm 0 W/m2
23:17 13.2 °C 10.9 °C 1017.2 hPa West 8 km/h 12.9 km/h 86 % 0.25 mm 0 W/m2
23:22 13.1 °C 11 °C 1016.8 hPa WSW 6.4 km/h 12.9 km/h 87 % 0.25 mm 0 W/m2
23:27 13.1 °C 11 °C 1017.2 hPa WSW 4.8 km/h 12.9 km/h 87 % 0.51 mm 0 W/m2
23:32 12.9 °C 10.9 °C 1017.2 hPa West 6.4 km/h 11.3 km/h 88 % 0.51 mm 0 W/m2
23:37 12.9 °C 10.9 °C 1017.2 hPa West 6.4 km/h 11.3 km/h 88 % 0.51 mm 0 W/m2
23:42 12.8 °C 11.1 °C 1016.8 hPa WNW 4.8 km/h 9.7 km/h 89 % 0.51 mm 0 W/m2
23:47 12.7 °C 10.9 °C 1017.2 hPa WNW 1.6 km/h 9.7 km/h 89 % 0.51 mm 0 W/m2
23:52 12.7 °C 10.9 °C 1016.8 hPa Calm     89 % 0.51 mm 0 W/m2
23:57 12.6 °C 11 °C 1016.8 hPa Calm     90 % 0.51 mm 0 W/m2
Delerius-Weather
Compliments of Weather Underground - 2.25 mb

Data updates at regular intervals.